sensor_id;sensor_type;location;lat;lon;timestamp;P1;durP1;ratioP1;P2;durP2;ratioP2
17488;SDS011;8861;52.644;4.734;2023-10-31T00:02:16;4.27;;;2.20;;
17488;SDS011;8861;52.644;4.734;2023-10-31T00:04:44;3.93;;;1.77;;
17488;SDS011;8861;52.644;4.734;2023-10-31T00:07:11;3.23;;;1.90;;
17488;SDS011;8861;52.644;4.734;2023-10-31T00:09:38;2.03;;;1.70;;
17488;SDS011;8861;52.644;4.734;2023-10-31T00:12:05;2.50;;;1.47;;
17488;SDS011;8861;52.644;4.734;2023-10-31T00:14:32;4.43;;;1.70;;
17488;SDS011;8861;52.644;4.734;2023-10-31T00:16:59;3.07;;;1.97;;
17488;SDS011;8861;52.644;4.734;2023-10-31T00:19:26;2.43;;;1.97;;
17488;SDS011;8861;52.644;4.734;2023-10-31T00:21:54;4.67;;;2.10;;
17488;SDS011;8861;52.644;4.734;2023-10-31T00:24:21;4.83;;;1.90;;
17488;SDS011;8861;52.644;4.734;2023-10-31T00:26:48;2.93;;;1.83;;
17488;SDS011;8861;52.644;4.734;2023-10-31T00:29:15;3.13;;;2.00;;
17488;SDS011;8861;52.644;4.734;2023-10-31T00:31:42;2.40;;;1.83;;
17488;SDS011;8861;52.644;4.734;2023-10-31T00:34:09;2.80;;;1.80;;
17488;SDS011;8861;52.644;4.734;2023-10-31T00:36:36;2.63;;;2.00;;
17488;SDS011;8861;52.644;4.734;2023-10-31T00:39:04;5.67;;;2.37;;
17488;SDS011;8861;52.644;4.734;2023-10-31T00:41:31;8.53;;;2.70;;
17488;SDS011;8861;52.644;4.734;2023-10-31T00:43:58;4.17;;;2.20;;
17488;SDS011;8861;52.644;4.734;2023-10-31T00:46:25;3.63;;;2.53;;
17488;SDS011;8861;52.644;4.734;2023-10-31T00:48:52;4.93;;;2.50;;
17488;SDS011;8861;52.644;4.734;2023-10-31T00:51:20;8.37;;;2.80;;
17488;SDS011;8861;52.644;4.734;2023-10-31T00:53:46;7.20;;;3.30;;
17488;SDS011;8861;52.644;4.734;2023-10-31T00:56:15;7.83;;;3.13;;
17488;SDS011;8861;52.644;4.734;2023-10-31T00:58:41;7.00;;;2.77;;
17488;SDS011;8861;52.644;4.734;2023-10-31T01:01:08;5.90;;;2.60;;
17488;SDS011;8861;52.644;4.734;2023-10-31T01:03:35;4.83;;;2.40;;
17488;SDS011;8861;52.644;4.734;2023-10-31T01:06:02;3.70;;;2.30;;
17488;SDS011;8861;52.644;4.734;2023-10-31T01:08:29;4.03;;;2.20;;
17488;SDS011;8861;52.644;4.734;2023-10-31T01:10:56;3.27;;;2.07;;
17488;SDS011;8861;52.644;4.734;2023-10-31T01:13:24;4.47;;;2.30;;
17488;SDS011;8861;52.644;4.734;2023-10-31T01:15:51;6.50;;;2.60;;
17488;SDS011;8861;52.644;4.734;2023-10-31T01:18:18;6.80;;;2.40;;
17488;SDS011;8861;52.644;4.734;2023-10-31T01:20:45;7.20;;;2.87;;
17488;SDS011;8861;52.644;4.734;2023-10-31T01:23:12;4.70;;;2.10;;
17488;SDS011;8861;52.644;4.734;2023-10-31T01:25:38;4.10;;;1.87;;
17488;SDS011;8861;52.644;4.734;2023-10-31T01:28:05;6.80;;;2.20;;
17488;SDS011;8861;52.644;4.734;2023-10-31T01:30:36;4.13;;;1.80;;
17488;SDS011;8861;52.644;4.734;2023-10-31T01:33:02;6.77;;;2.10;;
17488;SDS011;8861;52.644;4.734;2023-10-31T01:35:29;4.30;;;1.80;;
17488;SDS011;8861;52.644;4.734;2023-10-31T01:37:56;4.30;;;1.90;;
17488;SDS011;8861;52.644;4.734;2023-10-31T01:40:23;2.73;;;1.60;;
17488;SDS011;8861;52.644;4.734;2023-10-31T01:42:50;3.40;;;1.63;;
17488;SDS011;8861;52.644;4.734;2023-10-31T01:45:17;3.23;;;1.63;;
17488;SDS011;8861;52.644;4.734;2023-10-31T01:47:45;2.50;;;1.63;;
17488;SDS011;8861;52.644;4.734;2023-10-31T01:50:14;2.73;;;1.40;;
17488;SDS011;8861;52.644;4.734;2023-10-31T01:52:41;2.73;;;1.60;;
17488;SDS011;8861;52.644;4.734;2023-10-31T01:55:08;2.47;;;1.40;;
17488;SDS011;8861;52.644;4.734;2023-10-31T01:57:36;4.27;;;1.40;;
17488;SDS011;8861;52.644;4.734;2023-10-31T02:00:04;2.10;;;1.20;;
17488;SDS011;8861;52.644;4.734;2023-10-31T02:02:32;3.07;;;1.13;;
17488;SDS011;8861;52.644;4.734;2023-10-31T02:05:01;1.47;;;1.20;;
17488;SDS011;8861;52.644;4.734;2023-10-31T02:07:28;3.63;;;1.10;;
17488;SDS011;8861;52.644;4.734;2023-10-31T02:09:55;2.03;;;1.00;;
17488;SDS011;8861;52.644;4.734;2023-10-31T02:12:32;2.40;;;1.10;;
17488;SDS011;8861;52.644;4.734;2023-10-31T02:14:59;2.17;;;1.13;;
17488;SDS011;8861;52.644;4.734;2023-10-31T02:17:26;2.30;;;0.90;;
17488;SDS011;8861;52.644;4.734;2023-10-31T02:19:53;1.87;;;1.00;;
17488;SDS011;8861;52.644;4.734;2023-10-31T02:22:22;2.97;;;1.20;;
17488;SDS011;8861;52.644;4.734;2023-10-31T02:24:48;2.53;;;1.00;;
17488;SDS011;8861;52.644;4.734;2023-10-31T02:27:15;1.47;;;1.00;;
17488;SDS011;8861;52.644;4.734;2023-10-31T02:29:42;3.30;;;1.20;;
17488;SDS011;8861;52.644;4.734;2023-10-31T02:32:09;1.83;;;1.10;;
17488;SDS011;8861;52.644;4.734;2023-10-31T02:34:36;1.60;;;1.00;;
17488;SDS011;8861;52.644;4.734;2023-10-31T02:37:03;2.77;;;1.20;;
17488;SDS011;8861;52.644;4.734;2023-10-31T02:39:32;2.80;;;1.23;;
17488;SDS011;8861;52.644;4.734;2023-10-31T02:41:59;1.70;;;1.13;;
17488;SDS011;8861;52.644;4.734;2023-10-31T02:44:26;1.97;;;1.20;;
17488;SDS011;8861;52.644;4.734;2023-10-31T02:46:53;1.47;;;1.13;;
17488;SDS011;8861;52.644;4.734;2023-10-31T02:49:19;4.87;;;1.33;;
17488;SDS011;8861;52.644;4.734;2023-10-31T02:51:46;2.73;;;1.10;;
17488;SDS011;8861;52.644;4.734;2023-10-31T02:54:13;1.60;;;0.83;;
17488;SDS011;8861;52.644;4.734;2023-10-31T02:56:41;3.63;;;1.30;;
17488;SDS011;8861;52.644;4.734;2023-10-31T02:59:08;0.93;;;0.90;;
17488;SDS011;8861;52.644;4.734;2023-10-31T03:01:35;2.83;;;1.20;;
17488;SDS011;8861;52.644;4.734;2023-10-31T03:04:02;1.67;;;1.10;;
17488;SDS011;8861;52.644;4.734;2023-10-31T03:06:29;2.53;;;1.27;;
17488;SDS011;8861;52.644;4.734;2023-10-31T03:08:56;4.20;;;1.17;;
17488;SDS011;8861;52.644;4.734;2023-10-31T03:11:23;2.87;;;1.30;;
17488;SDS011;8861;52.644;4.734;2023-10-31T03:13:52;4.77;;;1.30;;
17488;SDS011;8861;52.644;4.734;2023-10-31T03:16:21;2.47;;;1.10;;
17488;SDS011;8861;52.644;4.734;2023-10-31T03:18:48;1.63;;;1.13;;
17488;SDS011;8861;52.644;4.734;2023-10-31T03:21:15;1.97;;;1.33;;
17488;SDS011;8861;52.644;4.734;2023-10-31T03:23:42;1.43;;;1.20;;
17488;SDS011;8861;52.644;4.734;2023-10-31T03:26:09;2.70;;;1.40;;
17488;SDS011;8861;52.644;4.734;2023-10-31T03:28:36;2.20;;;1.40;;
17488;SDS011;8861;52.644;4.734;2023-10-31T03:31:04;3.40;;;1.50;;
17488;SDS011;8861;52.644;4.734;2023-10-31T03:33:31;3.67;;;1.53;;
17488;SDS011;8861;52.644;4.734;2023-10-31T03:35:58;7.87;;;1.80;;
17488;SDS011;8861;52.644;4.734;2023-10-31T03:38:25;9.13;;;1.50;;
17488;SDS011;8861;52.644;4.734;2023-10-31T03:40:51;3.40;;;1.60;;
17488;SDS011;8861;52.644;4.734;2023-10-31T03:43:18;6.17;;;1.47;;
17488;SDS011;8861;52.644;4.734;2023-10-31T03:45:45;4.27;;;1.30;;
17488;SDS011;8861;52.644;4.734;2023-10-31T03:48:15;6.00;;;1.60;;
17488;SDS011;8861;52.644;4.734;2023-10-31T03:50:42;6.33;;;1.50;;
17488;SDS011;8861;52.644;4.734;2023-10-31T03:53:09;7.50;;;1.60;;
17488;SDS011;8861;52.644;4.734;2023-10-31T03:55:36;7.03;;;1.60;;
17488;SDS011;8861;52.644;4.734;2023-10-31T03:58:03;6.60;;;1.70;;
17488;SDS011;8861;52.644;4.734;2023-10-31T04:00:32;4.90;;;1.50;;
17488;SDS011;8861;52.644;4.734;2023-10-31T04:02:59;5.77;;;1.70;;
17488;SDS011;8861;52.644;4.734;2023-10-31T04:05:27;4.90;;;1.40;;
17488;SDS011;8861;52.644;4.734;2023-10-31T04:07:54;6.60;;;1.30;;
17488;SDS011;8861;52.644;4.734;2023-10-31T04:10:21;4.30;;;1.30;;
17488;SDS011;8861;52.644;4.734;2023-10-31T04:12:48;5.23;;;1.33;;
17488;SDS011;8861;52.644;4.734;2023-10-31T04:15:15;4.33;;;1.30;;
17488;SDS011;8861;52.644;4.734;2023-10-31T04:17:41;5.73;;;1.30;;
17488;SDS011;8861;52.644;4.734;2023-10-31T04:20:09;2.43;;;0.93;;
17488;SDS011;8861;52.644;4.734;2023-10-31T04:22:37;3.87;;;1.20;;
17488;SDS011;8861;52.644;4.734;2023-10-31T04:25:04;3.27;;;1.20;;
17488;SDS011;8861;52.644;4.734;2023-10-31T04:27:32;1.43;;;1.00;;
17488;SDS011;8861;52.644;4.734;2023-10-31T04:29:58;2.17;;;1.20;;
17488;SDS011;8861;52.644;4.734;2023-10-31T04:32:25;2.40;;;1.10;;
17488;SDS011;8861;52.644;4.734;2023-10-31T04:34:52;6.20;;;1.47;;
17488;SDS011;8861;52.644;4.734;2023-10-31T04:37:19;3.20;;;1.30;;
17488;SDS011;8861;52.644;4.734;2023-10-31T04:39:47;2.47;;;1.40;;
17488;SDS011;8861;52.644;4.734;2023-10-31T04:42:14;7.17;;;1.80;;
17488;SDS011;8861;52.644;4.734;2023-10-31T04:44:40;6.67;;;1.63;;
17488;SDS011;8861;52.644;4.734;2023-10-31T04:47:07;5.33;;;1.90;;
17488;SDS011;8861;52.644;4.734;2023-10-31T04:49:34;5.27;;;1.80;;
17488;SDS011;8861;52.644;4.734;2023-10-31T04:52:01;3.50;;;1.80;;
17488;SDS011;8861;52.644;4.734;2023-10-31T04:54:28;4.10;;;1.60;;
17488;SDS011;8861;52.644;4.734;2023-10-31T04:56:57;7.47;;;1.70;;
17488;SDS011;8861;52.644;4.734;2023-10-31T04:59:23;3.10;;;1.20;;
17488;SDS011;8861;52.644;4.734;2023-10-31T05:01:51;2.47;;;1.40;;
17488;SDS011;8861;52.644;4.734;2023-10-31T05:04:20;3.70;;;1.43;;
17488;SDS011;8861;52.644;4.734;2023-10-31T05:06:47;3.23;;;1.53;;
17488;SDS011;8861;52.644;4.734;2023-10-31T05:09:14;2.20;;;1.23;;
17488;SDS011;8861;52.644;4.734;2023-10-31T05:11:41;1.63;;;1.30;;
17488;SDS011;8861;52.644;4.734;2023-10-31T05:14:09;2.30;;;1.30;;
17488;SDS011;8861;52.644;4.734;2023-10-31T05:16:39;1.93;;;1.60;;
17488;SDS011;8861;52.644;4.734;2023-10-31T05:19:06;1.57;;;1.40;;
17488;SDS011;8861;52.644;4.734;2023-10-31T05:21:33;2.23;;;1.40;;
17488;SDS011;8861;52.644;4.734;2023-10-31T05:24:00;1.27;;;1.17;;
17488;SDS011;8861;52.644;4.734;2023-10-31T05:26:27;1.57;;;1.27;;
17488;SDS011;8861;52.644;4.734;2023-10-31T05:28:54;1.30;;;1.20;;
17488;SDS011;8861;52.644;4.734;2023-10-31T05:31:23;2.77;;;1.40;;
17488;SDS011;8861;52.644;4.734;2023-10-31T05:33:50;2.80;;;1.20;;
17488;SDS011;8861;52.644;4.734;2023-10-31T05:36:18;2.27;;;1.37;;
17488;SDS011;8861;52.644;4.734;2023-10-31T05:38:45;1.40;;;1.13;;
17488;SDS011;8861;52.644;4.734;2023-10-31T05:41:12;1.80;;;1.20;;
17488;SDS011;8861;52.644;4.734;2023-10-31T05:43:39;2.23;;;1.20;;
17488;SDS011;8861;52.644;4.734;2023-10-31T05:46:06;1.20;;;1.10;;
17488;SDS011;8861;52.644;4.734;2023-10-31T05:48:36;4.70;;;1.37;;
17488;SDS011;8861;52.644;4.734;2023-10-31T05:51:04;1.20;;;1.10;;
17488;SDS011;8861;52.644;4.734;2023-10-31T05:53:31;1.10;;;1.00;;
17488;SDS011;8861;52.644;4.734;2023-10-31T05:55:59;1.33;;;1.00;;
17488;SDS011;8861;52.644;4.734;2023-10-31T05:58:26;1.20;;;1.10;;
17488;SDS011;8861;52.644;4.734;2023-10-31T06:00:53;1.00;;;1.00;;
17488;SDS011;8861;52.644;4.734;2023-10-31T06:03:21;0.90;;;0.90;;
17488;SDS011;8861;52.644;4.734;2023-10-31T06:05:49;2.80;;;1.20;;
17488;SDS011;8861;52.644;4.734;2023-10-31T06:08:15;1.30;;;1.10;;
17488;SDS011;8861;52.644;4.734;2023-10-31T06:10:42;1.27;;;1.10;;
17488;SDS011;8861;52.644;4.734;2023-10-31T06:13:09;2.30;;;1.37;;
17488;SDS011;8861;52.644;4.734;2023-10-31T06:15:36;1.40;;;1.30;;
17488;SDS011;8861;52.644;4.734;2023-10-31T06:18:03;1.33;;;1.07;;
17488;SDS011;8861;52.644;4.734;2023-10-31T06:20:30;1.37;;;1.27;;
17488;SDS011;8861;52.644;4.734;2023-10-31T06:23:00;2.60;;;1.20;;
17488;SDS011;8861;52.644;4.734;2023-10-31T06:25:28;1.50;;;1.20;;
17488;SDS011;8861;52.644;4.734;2023-10-31T06:27:55;2.83;;;1.40;;
17488;SDS011;8861;52.644;4.734;2023-10-31T06:30:22;3.07;;;1.40;;
17488;SDS011;8861;52.644;4.734;2023-10-31T06:32:49;3.20;;;1.23;;
17488;SDS011;8861;52.644;4.734;2023-10-31T06:35:16;2.10;;;1.20;;
17488;SDS011;8861;52.644;4.734;2023-10-31T06:37:43;1.50;;;1.20;;
17488;SDS011;8861;52.644;4.734;2023-10-31T06:40:12;1.87;;;1.40;;
17488;SDS011;8861;52.644;4.734;2023-10-31T06:42:38;1.53;;;1.07;;
17488;SDS011;8861;52.644;4.734;2023-10-31T06:45:06;1.90;;;1.10;;
17488;SDS011;8861;52.644;4.734;2023-10-31T06:47:33;1.13;;;1.03;;
17488;SDS011;8861;52.644;4.734;2023-10-31T06:50:00;2.83;;;1.13;;
17488;SDS011;8861;52.644;4.734;2023-10-31T06:52:27;1.47;;;1.00;;
17488;SDS011;8861;52.644;4.734;2023-10-31T06:54:54;2.27;;;1.03;;
17488;SDS011;8861;52.644;4.734;2023-10-31T06:57:22;1.20;;;1.10;;
17488;SDS011;8861;52.644;4.734;2023-10-31T06:59:49;1.30;;;1.00;;
17488;SDS011;8861;52.644;4.734;2023-10-31T07:02:16;1.17;;;1.07;;
17488;SDS011;8861;52.644;4.734;2023-10-31T07:04:43;1.50;;;1.10;;
17488;SDS011;8861;52.644;4.734;2023-10-31T07:07:09;1.10;;;1.00;;
17488;SDS011;8861;52.644;4.734;2023-10-31T07:09:36;1.13;;;1.00;;
17488;SDS011;8861;52.644;4.734;2023-10-31T07:12:03;1.83;;;0.83;;
17488;SDS011;8861;52.644;4.734;2023-10-31T07:14:32;0.83;;;0.83;;
17488;SDS011;8861;52.644;4.734;2023-10-31T07:16:59;1.20;;;1.10;;
17488;SDS011;8861;52.644;4.734;2023-10-31T07:19:26;1.00;;;1.00;;
17488;SDS011;8861;52.644;4.734;2023-10-31T07:21:53;0.97;;;0.87;;
17488;SDS011;8861;52.644;4.734;2023-10-31T07:24:20;1.00;;;1.00;;
17488;SDS011;8861;52.644;4.734;2023-10-31T07:26:47;0.77;;;0.77;;
17488;SDS011;8861;52.644;4.734;2023-10-31T07:29:14;0.80;;;0.80;;
17488;SDS011;8861;52.644;4.734;2023-10-31T07:31:42;1.00;;;0.90;;
17488;SDS011;8861;52.644;4.734;2023-10-31T07:34:09;1.10;;;0.90;;
17488;SDS011;8861;52.644;4.734;2023-10-31T07:36:36;0.97;;;0.93;;
17488;SDS011;8861;52.644;4.734;2023-10-31T07:39:04;0.73;;;0.73;;
17488;SDS011;8861;52.644;4.734;2023-10-31T07:41:31;1.67;;;1.17;;
17488;SDS011;8861;52.644;4.734;2023-10-31T07:43:58;2.93;;;1.30;;
17488;SDS011;8861;52.644;4.734;2023-10-31T07:46:25;1.70;;;1.13;;
17488;SDS011;8861;52.644;4.734;2023-10-31T07:48:53;1.97;;;1.40;;
17488;SDS011;8861;52.644;4.734;2023-10-31T07:51:20;1.63;;;1.10;;
17488;SDS011;8861;52.644;4.734;2023-10-31T07:53:47;2.30;;;1.30;;
17488;SDS011;8861;52.644;4.734;2023-10-31T07:56:14;1.37;;;1.10;;
17488;SDS011;8861;52.644;4.734;2023-10-31T07:58:41;1.40;;;0.93;;
17488;SDS011;8861;52.644;4.734;2023-10-31T08:01:08;1.20;;;0.93;;
17488;SDS011;8861;52.644;4.734;2023-10-31T08:03:36;2.17;;;1.17;;
17488;SDS011;8861;52.644;4.734;2023-10-31T08:06:05;2.10;;;1.07;;
17488;SDS011;8861;52.644;4.734;2023-10-31T08:08:33;1.77;;;0.97;;
17488;SDS011;8861;52.644;4.734;2023-10-31T08:11:00;1.20;;;1.10;;
17488;SDS011;8861;52.644;4.734;2023-10-31T08:13:28;0.90;;;0.90;;
17488;SDS011;8861;52.644;4.734;2023-10-31T08:15:55;1.07;;;0.90;;
17488;SDS011;8861;52.644;4.734;2023-10-31T08:18:23;0.93;;;0.93;;
17488;SDS011;8861;52.644;4.734;2023-10-31T08:20:50;0.80;;;0.80;;
17488;SDS011;8861;52.644;4.734;2023-10-31T08:23:18;1.80;;;1.00;;
17488;SDS011;8861;52.644;4.734;2023-10-31T08:25:45;0.97;;;0.97;;
17488;SDS011;8861;52.644;4.734;2023-10-31T08:28:12;0.90;;;0.90;;
17488;SDS011;8861;52.644;4.734;2023-10-31T08:30:39;0.80;;;0.80;;
17488;SDS011;8861;52.644;4.734;2023-10-31T08:33:05;0.80;;;0.80;;
17488;SDS011;8861;52.644;4.734;2023-10-31T08:35:32;1.43;;;0.90;;
17488;SDS011;8861;52.644;4.734;2023-10-31T08:37:59;1.10;;;0.77;;
17488;SDS011;8861;52.644;4.734;2023-10-31T08:40:27;0.87;;;0.73;;
17488;SDS011;8861;52.644;4.734;2023-10-31T08:42:54;2.37;;;1.10;;
17488;SDS011;8861;52.644;4.734;2023-10-31T08:45:22;1.57;;;0.83;;
17488;SDS011;8861;52.644;4.734;2023-10-31T08:47:49;1.97;;;0.87;;
17488;SDS011;8861;52.644;4.734;2023-10-31T08:50:16;2.10;;;0.80;;
17488;SDS011;8861;52.644;4.734;2023-10-31T08:52:43;1.33;;;1.00;;
17488;SDS011;8861;52.644;4.734;2023-10-31T08:55:09;3.37;;;0.90;;
17488;SDS011;8861;52.644;4.734;2023-10-31T08:57:38;0.83;;;0.70;;
17488;SDS011;8861;52.644;4.734;2023-10-31T09:00:05;3.23;;;0.80;;
17488;SDS011;8861;52.644;4.734;2023-10-31T09:02:33;1.93;;;0.80;;
17488;SDS011;8861;52.644;4.734;2023-10-31T09:04:59;1.07;;;0.70;;
17488;SDS011;8861;52.644;4.734;2023-10-31T09:07:26;0.93;;;0.60;;
17488;SDS011;8861;52.644;4.734;2023-10-31T09:09:53;0.87;;;0.67;;
17488;SDS011;8861;52.644;4.734;2023-10-31T09:12:20;0.60;;;0.40;;
17488;SDS011;8861;52.644;4.734;2023-10-31T09:14:48;1.53;;;0.80;;
17488;SDS011;8861;52.644;4.734;2023-10-31T09:17:15;0.93;;;0.82;;
17488;SDS011;8861;52.644;4.734;2023-10-31T09:19:42;0.70;;;0.70;;
17488;SDS011;8861;52.644;4.734;2023-10-31T09:22:09;1.00;;;0.80;;
17488;SDS011;8861;52.644;4.734;2023-10-31T09:24:36;1.80;;;0.83;;
17488;SDS011;8861;52.644;4.734;2023-10-31T09:27:04;0.83;;;0.83;;
17488;SDS011;8861;52.644;4.734;2023-10-31T09:29:30;3.90;;;1.07;;
17488;SDS011;8861;52.644;4.734;2023-10-31T09:31:58;2.27;;;0.83;;
17488;SDS011;8861;52.644;4.734;2023-10-31T09:34:25;1.30;;;0.90;;
17488;SDS011;8861;52.644;4.734;2023-10-31T09:36:52;2.80;;;0.80;;
17488;SDS011;8861;52.644;4.734;2023-10-31T09:39:19;2.97;;;1.03;;
17488;SDS011;8861;52.644;4.734;2023-10-31T09:41:47;1.23;;;0.73;;
17488;SDS011;8861;52.644;4.734;2023-10-31T09:44:14;1.20;;;0.60;;
17488;SDS011;8861;52.644;4.734;2023-10-31T09:46:41;0.80;;;0.60;;
17488;SDS011;8861;52.644;4.734;2023-10-31T09:49:11;2.67;;;0.90;;
17488;SDS011;8861;52.644;4.734;2023-10-31T09:51:38;0.80;;;0.70;;
17488;SDS011;8861;52.644;4.734;2023-10-31T09:54:05;0.73;;;0.60;;
17488;SDS011;8861;52.644;4.734;2023-10-31T09:56:34;1.27;;;0.90;;
17488;SDS011;8861;52.644;4.734;2023-10-31T09:59:01;0.77;;;0.70;;
17488;SDS011;8861;52.644;4.734;2023-10-31T10:01:28;0.60;;;0.60;;
17488;SDS011;8861;52.644;4.734;2023-10-31T10:03:55;0.60;;;0.60;;
17488;SDS011;8861;52.644;4.734;2023-10-31T10:06:24;0.90;;;0.60;;
17488;SDS011;8861;52.644;4.734;2023-10-31T10:08:51;0.77;;;0.70;;
17488;SDS011;8861;52.644;4.734;2023-10-31T10:11:18;1.53;;;0.80;;
17488;SDS011;8861;52.644;4.734;2023-10-31T10:13:45;1.00;;;0.80;;
17488;SDS011;8861;52.644;4.734;2023-10-31T10:16:12;0.70;;;0.70;;
17488;SDS011;8861;52.644;4.734;2023-10-31T10:18:39;0.90;;;0.60;;
17488;SDS011;8861;52.644;4.734;2023-10-31T10:21:06;2.30;;;0.90;;
17488;SDS011;8861;52.644;4.734;2023-10-31T10:23:35;0.90;;;0.80;;
17488;SDS011;8861;52.644;4.734;2023-10-31T10:26:02;1.07;;;0.97;;
17488;SDS011;8861;52.644;4.734;2023-10-31T10:28:29;1.83;;;0.73;;
17488;SDS011;8861;52.644;4.734;2023-10-31T10:30:58;3.67;;;0.70;;
17488;SDS011;8861;52.644;4.734;2023-10-31T10:33:25;0.60;;;0.60;;
17488;SDS011;8861;52.644;4.734;2023-10-31T10:35:51;0.67;;;0.57;;
17488;SDS011;8861;52.644;4.734;2023-10-31T10:38:21;0.67;;;0.67;;
17488;SDS011;8861;52.644;4.734;2023-10-31T10:40:49;1.80;;;0.70;;
17488;SDS011;8861;52.644;4.734;2023-10-31T10:43:20;1.67;;;0.80;;
17488;SDS011;8861;52.644;4.734;2023-10-31T10:45:50;1.00;;;0.70;;
17488;SDS011;8861;52.644;4.734;2023-10-31T10:48:21;0.77;;;0.67;;
17488;SDS011;8861;52.644;4.734;2023-10-31T10:50:50;0.70;;;0.70;;
17488;SDS011;8861;52.644;4.734;2023-10-31T10:53:22;0.63;;;0.63;;
17488;SDS011;8861;52.644;4.734;2023-10-31T10:55:55;1.43;;;0.73;;
17488;SDS011;8861;52.644;4.734;2023-10-31T10:58:26;0.70;;;0.70;;
17488;SDS011;8861;52.644;4.734;2023-10-31T11:00:59;0.67;;;0.60;;
17488;SDS011;8861;52.644;4.734;2023-10-31T11:03:28;0.80;;;0.80;;
17488;SDS011;8861;52.644;4.734;2023-10-31T11:05:56;1.13;;;0.80;;
17488;SDS011;8861;52.644;4.734;2023-10-31T11:08:23;0.90;;;0.60;;
17488;SDS011;8861;52.644;4.734;2023-10-31T11:10:51;0.60;;;0.60;;
17488;SDS011;8861;52.644;4.734;2023-10-31T11:13:22;1.47;;;0.80;;
17488;SDS011;8861;52.644;4.734;2023-10-31T11:15:51;0.90;;;0.77;;
17488;SDS011;8861;52.644;4.734;2023-10-31T11:18:21;1.00;;;0.60;;
17488;SDS011;8861;52.644;4.734;2023-10-31T11:20:49;2.03;;;0.80;;
17488;SDS011;8861;52.644;4.734;2023-10-31T11:23:16;1.33;;;0.80;;
17488;SDS011;8861;52.644;4.734;2023-10-31T11:25:43;1.47;;;0.73;;
17488;SDS011;8861;52.644;4.734;2023-10-31T11:28:12;0.67;;;0.67;;
17488;SDS011;8861;52.644;4.734;2023-10-31T11:30:40;0.90;;;0.80;;
17488;SDS011;8861;52.644;4.734;2023-10-31T11:33:11;1.43;;;0.60;;
17488;SDS011;8861;52.644;4.734;2023-10-31T11:35:38;0.70;;;0.70;;
17488;SDS011;8861;52.644;4.734;2023-10-31T11:38:06;1.80;;;0.80;;
17488;SDS011;8861;52.644;4.734;2023-10-31T11:40:34;2.17;;;0.83;;
17488;SDS011;8861;52.644;4.734;2023-10-31T11:43:02;1.90;;;0.80;;
17488;SDS011;8861;52.644;4.734;2023-10-31T11:45:33;1.67;;;0.97;;
17488;SDS011;8861;52.644;4.734;2023-10-31T11:48:01;1.10;;;0.90;;
17488;SDS011;8861;52.644;4.734;2023-10-31T11:50:29;2.97;;;1.07;;
17488;SDS011;8861;52.644;4.734;2023-10-31T11:52:59;1.47;;;0.90;;
17488;SDS011;8861;52.644;4.734;2023-10-31T11:55:31;1.80;;;0.80;;
17488;SDS011;8861;52.644;4.734;2023-10-31T11:58:12;2.10;;;0.80;;
17488;SDS011;8861;52.644;4.734;2023-10-31T12:00:41;1.03;;;0.70;;
17488;SDS011;8861;52.644;4.734;2023-10-31T12:03:08;1.10;;;0.80;;
17488;SDS011;8861;52.644;4.734;2023-10-31T12:05:34;0.60;;;0.60;;
17488;SDS011;8861;52.644;4.734;2023-10-31T12:08:01;0.83;;;0.70;;
17488;SDS011;8861;52.644;4.734;2023-10-31T12:10:29;1.57;;;0.80;;
17488;SDS011;8861;52.644;4.734;2023-10-31T12:12:57;1.50;;;0.90;;
17488;SDS011;8861;52.644;4.734;2023-10-31T12:15:24;0.80;;;0.80;;
17488;SDS011;8861;52.644;4.734;2023-10-31T12:17:54;0.60;;;0.60;;
17488;SDS011;8861;52.644;4.734;2023-10-31T12:20:24;0.70;;;0.70;;
17488;SDS011;8861;52.644;4.734;2023-10-31T12:23:01;0.60;;;0.60;;
17488;SDS011;8861;52.644;4.734;2023-10-31T12:25:28;0.77;;;0.77;;
17488;SDS011;8861;52.644;4.734;2023-10-31T12:27:57;0.60;;;0.60;;
17488;SDS011;8861;52.644;4.734;2023-10-31T12:30:24;0.87;;;0.60;;
17488;SDS011;8861;52.644;4.734;2023-10-31T12:32:54;1.90;;;0.90;;
17488;SDS011;8861;52.644;4.734;2023-10-31T12:35:22;2.73;;;0.80;;
17488;SDS011;8861;52.644;4.734;2023-10-31T12:37:51;0.63;;;0.63;;
17488;SDS011;8861;52.644;4.734;2023-10-31T12:40:20;0.63;;;0.60;;
17488;SDS011;8861;52.644;4.734;2023-10-31T12:42:48;0.73;;;0.60;;
17488;SDS011;8861;52.644;4.734;2023-10-31T12:45:15;0.60;;;0.60;;
17488;SDS011;8861;52.644;4.734;2023-10-31T12:47:44;0.70;;;0.70;;
17488;SDS011;8861;52.644;4.734;2023-10-31T12:50:13;0.93;;;0.70;;
17488;SDS011;8861;52.644;4.734;2023-10-31T12:52:45;0.77;;;0.77;;
17488;SDS011;8861;52.644;4.734;2023-10-31T12:55:13;1.73;;;0.73;;
17488;SDS011;8861;52.644;4.734;2023-10-31T12:57:41;1.13;;;0.80;;
17488;SDS011;8861;52.644;4.734;2023-10-31T13:00:09;0.70;;;0.70;;
17488;SDS011;8861;52.644;4.734;2023-10-31T13:02:38;0.80;;;0.80;;
17488;SDS011;8861;52.644;4.734;2023-10-31T13:05:09;0.67;;;0.67;;
17488;SDS011;8861;52.644;4.734;2023-10-31T13:07:47;0.73;;;0.73;;
17488;SDS011;8861;52.644;4.734;2023-10-31T13:10:15;0.93;;;0.70;;
17488;SDS011;8861;52.644;4.734;2023-10-31T13:12:45;0.73;;;0.67;;
17488;SDS011;8861;52.644;4.734;2023-10-31T13:15:13;0.80;;;0.80;;
17488;SDS011;8861;52.644;4.734;2023-10-31T13:17:39;0.60;;;0.60;;
17488;SDS011;8861;52.644;4.734;2023-10-31T13:20:08;1.10;;;0.70;;
17488;SDS011;8861;52.644;4.734;2023-10-31T13:22:37;0.63;;;0.63;;
17488;SDS011;8861;52.644;4.734;2023-10-31T13:25:05;0.67;;;0.67;;
17488;SDS011;8861;52.644;4.734;2023-10-31T13:27:35;0.67;;;0.67;;
17488;SDS011;8861;52.644;4.734;2023-10-31T13:30:02;1.20;;;0.80;;
17488;SDS011;8861;52.644;4.734;2023-10-31T13:32:30;1.00;;;0.70;;
17488;SDS011;8861;52.644;4.734;2023-10-31T13:34:57;0.70;;;0.70;;
17488;SDS011;8861;52.644;4.734;2023-10-31T13:37:24;0.70;;;0.70;;
17488;SDS011;8861;52.644;4.734;2023-10-31T13:39:53;0.60;;;0.60;;
17488;SDS011;8861;52.644;4.734;2023-10-31T13:42:20;0.70;;;0.70;;
17488;SDS011;8861;52.644;4.734;2023-10-31T13:44:47;0.60;;;0.60;;
17488;SDS011;8861;52.644;4.734;2023-10-31T13:47:14;0.60;;;0.60;;
17488;SDS011;8861;52.644;4.734;2023-10-31T13:49:41;0.60;;;0.60;;
17488;SDS011;8861;52.644;4.734;2023-10-31T13:52:08;0.60;;;0.60;;
17488;SDS011;8861;52.644;4.734;2023-10-31T13:54:34;0.80;;;0.70;;
17488;SDS011;8861;52.644;4.734;2023-10-31T13:57:03;0.60;;;0.60;;
17488;SDS011;8861;52.644;4.734;2023-10-31T13:59:29;0.60;;;0.60;;
17488;SDS011;8861;52.644;4.734;2023-10-31T14:01:57;0.60;;;0.60;;
17488;SDS011;8861;52.644;4.734;2023-10-31T14:04:23;0.70;;;0.70;;
17488;SDS011;8861;52.644;4.734;2023-10-31T14:06:50;0.50;;;0.50;;
17488;SDS011;8861;52.644;4.734;2023-10-31T14:09:17;0.70;;;0.63;;
17488;SDS011;8861;52.644;4.734;2023-10-31T14:11:44;0.57;;;0.57;;
17488;SDS011;8861;52.644;4.734;2023-10-31T14:14:12;0.60;;;0.60;;
17488;SDS011;8861;52.644;4.734;2023-10-31T14:16:39;0.70;;;0.70;;
17488;SDS011;8861;52.644;4.734;2023-10-31T14:19:06;0.70;;;0.70;;
17488;SDS011;8861;52.644;4.734;2023-10-31T14:21:33;0.63;;;0.53;;
17488;SDS011;8861;52.644;4.734;2023-10-31T14:24:00;0.70;;;0.70;;
17488;SDS011;8861;52.644;4.734;2023-10-31T14:26:28;0.70;;;0.70;;
17488;SDS011;8861;52.644;4.734;2023-10-31T14:28:57;0.60;;;0.60;;
17488;SDS011;8861;52.644;4.734;2023-10-31T14:31:26;0.60;;;0.60;;
17488;SDS011;8861;52.644;4.734;2023-10-31T14:33:52;0.80;;;0.80;;
17488;SDS011;8861;52.644;4.734;2023-10-31T14:36:19;0.70;;;0.70;;
17488;SDS011;8861;52.644;4.734;2023-10-31T14:38:46;0.60;;;0.60;;
17488;SDS011;8861;52.644;4.734;2023-10-31T14:41:13;0.70;;;0.70;;
17488;SDS011;8861;52.644;4.734;2023-10-31T14:43:40;0.80;;;0.80;;
17488;SDS011;8861;52.644;4.734;2023-10-31T14:46:07;0.90;;;0.90;;
17488;SDS011;8861;52.644;4.734;2023-10-31T14:48:35;0.70;;;0.70;;
17488;SDS011;8861;52.644;4.734;2023-10-31T14:51:02;0.80;;;0.80;;
17488;SDS011;8861;52.644;4.734;2023-10-31T14:53:29;0.60;;;0.60;;
17488;SDS011;8861;52.644;4.734;2023-10-31T14:55:56;0.70;;;0.70;;
17488;SDS011;8861;52.644;4.734;2023-10-31T14:58:23;0.80;;;0.80;;
17488;SDS011;8861;52.644;4.734;2023-10-31T15:00:50;1.00;;;0.90;;
17488;SDS011;8861;52.644;4.734;2023-10-31T15:03:17;2.00;;;1.20;;